Time;durP1;ratioP1;P1;durP2;ratioP2;P2;SDS_P1;SDS_P2;PMS_P1;PMS_P2;Temp;Humidity;BMP_temperature;BMP_pressure;BME280_temperature;BME280_humidity;BME280_pressure;Samples;Min_cycle;Max_cycle;Signal;HPM_P1;HPM_P2
2022/05/26 00:02:14;;;;;;;14.83;3.55;;;;;;;9.84;74.17;100295.67;1756705;80;21240;-84
2022/05/26 00:05:20;;;;;;;8.93;3.25;;;;;;;9.85;74.75;100290.54;1756741;81;21142;-84
2022/05/26 00:08:26;;;;;;;8.73;3.70;;;;;;;9.86;74.98;100288.14;1755938;80;21193;-84
2022/05/26 00:11:37;;;;;;;9.23;3.08;;;;;;;9.87;75.02;100287.96;1756683;81;21240;-84
2022/05/26 00:14:42;;;;;;;7.15;3.42;;;;;;;9.91;74.99;100279.77;1756780;81;21201;-84
2022/05/26 00:17:49;;;;;;;11.00;4.33;;;;;;;9.94;75.09;100279.95;1756254;80;21190;-84
2022/05/26 00:20:55;;;;;;;9.25;3.60;;;;;;;9.96;75.33;100281.98;1756755;81;21166;-83
2022/05/26 00:24:04;;;;;;;6.33;3.67;;;;;;;9.97;75.48;100279.09;1755488;80;21220;-84
2022/05/26 00:27:10;;;;;;;9.13;3.45;;;;;;;9.98;75.73;100268.50;1755458;80;21295;-84
2022/05/26 00:30:18;;;;;;;5.58;3.20;;;;;;;9.98;75.95;100273.97;1758871;81;21240;-84
2022/05/26 00:33:24;;;;;;;9.00;4.40;;;;;;;9.98;76.11;100271.23;1762196;80;21189;-84
2022/05/26 00:36:38;;;;;;;5.25;2.72;;;;;;;9.97;76.35;100269.53;1741023;81;21181;-84
2022/05/26 00:39:41;;;;;;;12.43;3.85;;;;;;;9.96;76.11;100258.75;1762425;81;21166;-83
2022/05/26 00:42:48;;;;;;;3.92;2.90;;;;;;;9.91;75.79;100261.16;1762449;80;21739;-83
2022/05/26 00:46:01;;;;;;;5.15;3.30;;;;;;;9.88;75.36;100263.73;1762389;81;21190;-84
2022/05/26 00:49:07;;;;;;;6.97;3.15;;;;;;;9.84;75.37;100268.36;1762192;80;21208;-84
2022/05/26 00:52:12;;;;;;;9.33;3.50;;;;;;;9.84;75.36;100254.17;1762065;80;21201;-84
2022/05/26 00:55:40;;;;;;;16.40;3.85;;;;;;;9.81;75.24;100253.14;1761945;81;21197;-84
2022/05/26 00:58:47;;;;;;;7.85;4.53;;;;;;;9.81;75.26;100253.14;1762343;80;21193;-84
2022/05/26 01:01:53;;;;;;;8.95;3.42;;;;;;;9.80;75.24;100248.72;1760998;80;21232;-84
2022/05/26 01:05:04;;;;;;;11.25;4.03;;;;;;;9.78;75.23;100248.02;1762408;81;21675;-84
2022/05/26 01:08:11;;;;;;;6.92;3.85;;;;;;;9.75;75.29;100243.44;1761579;80;21244;-83
2022/05/26 01:11:16;;;;;;;11.35;3.98;;;;;;;9.75;75.41;100251.12;1762183;81;21141;-85
2022/05/26 01:14:35;;;;;;;8.15;3.33;;;;;;;9.76;75.67;100245.98;1762279;81;21173;-84
2022/05/26 01:18:01;;;;;;;11.85;4.15;;;;;;;9.77;76.29;100246.32;1761953;80;21691;-84
2022/05/26 01:21:11;;;;;;;6.67;4.00;;;;;;;9.75;76.66;100240.19;1762167;81;21161;-84
2022/05/26 01:24:39;;;;;;;7.97;4.35;;;;;;;9.75;76.95;100237.97;1760975;81;21236;-84
2022/05/26 01:27:48;;;;;;;8.63;5.10;;;;;;;9.73;77.42;100234.03;1762256;80;21181;-84
2022/05/26 01:31:07;;;;;;;13.18;5.92;;;;;;;9.70;78.08;100231.66;1757964;81;21248;-85
2022/05/26 01:34:43;;;;;;;15.37;6.30;;;;;;;9.66;78.59;100234.39;1756708;80;21193;-84
2022/05/26 01:38:23;;;;;;;16.23;8.20;;;;;;;9.63;79.24;100224.66;1756587;80;21304;-84
2022/05/26 01:41:52;;;;;;;20.30;8.60;;;;;;;9.58;79.81;100220.73;1755609;81;21747;-84
2022/05/26 01:45:20;;;;;;;21.30;8.88;;;;;;;9.55;80.46;100216.97;1756689;81;21169;-82
2022/05/26 01:48:34;;;;;;;21.45;10.82;;;;;;;9.50;81.03;100218.86;1757199;80;21197;-83
2022/05/26 01:51:44;;;;;;;20.43;11.35;;;;;;;9.49;81.59;100222.62;1755570;81;21173;-84
2022/05/26 01:55:17;;;;;;;24.63;11.08;;;;;;;9.51;82.10;100218.38;1757121;81;21193;-84
2022/05/26 01:58:51;;;;;;;20.90;10.72;;;;;;;9.46;82.36;100220.25;1757072;80;21197;-84
2022/05/26 02:02:04;;;;;;;29.92;12.70;;;;;;;9.41;82.64;100223.49;1756835;80;21182;-84
2022/05/26 02:05:22;;;;;;;32.05;12.50;;;;;;;9.44;82.80;100224.50;1756921;81;21189;-84
2022/05/26 02:08:42;;;;;;;26.65;12.45;;;;;;;9.48;82.92;100220.41;1756028;80;21196;-84
2022/05/26 02:12:04;;;;;;;28.42;14.10;;;;;;;9.55;83.11;100226.05;1757042;81;21193;-77
2022/05/26 02:15:02;;;;;;;35.38;15.08;;;;;;;9.68;83.10;100217.31;1740710;81;21177;-84
2022/05/26 02:18:05;;;;;;;32.83;15.00;;;;;;;9.94;82.80;100221.20;1755612;80;21209;-83
2022/05/26 02:21:03;;;;;;;32.83;15.23;;;;;;;10.20;82.34;100216.84;1697536;81;21193;-78
2022/05/26 02:24:13;;;;;;;34.85;15.95;;;;;;;10.55;81.58;100216.91;1756859;80;21205;-77
2022/05/26 02:27:26;;;;;;;27.73;13.80;;;;;;;10.96;80.46;100219.39;1741822;80;21794;-77
2022/05/26 02:30:36;;;;;;;32.35;15.05;;;;;;;11.35;78.94;100220.67;1756801;81;21162;-77
2022/05/26 02:33:43;;;;;;;31.10;13.83;;;;;;;11.70;77.34;100215.04;1756855;80;21209;-77
2022/05/26 02:36:49;;;;;;;23.52;12.15;;;;;;;12.02;75.72;100215.26;1756892;81;21193;-78
2022/05/26 02:39:55;;;;;;;29.95;11.90;;;;;;;12.27;74.23;100225.42;1756865;81;21186;-77
2022/05/26 02:43:05;;;;;;;25.37;11.83;;;;;;;12.53;73.06;100225.47;1756854;80;21200;-77
2022/05/26 02:46:59;;;;;;;26.10;12.65;;;;;;;12.83;71.84;100236.39;1757032;81;21210;-78
2022/05/26 02:50:19;;;;;;;24.52;11.05;;;;;;;13.16;71.04;100232.12;1757040;81;21695;-78
2022/05/26 02:53:27;;;;;;;19.55;10.18;;;;;;;13.64;69.61;100244.77;1756877;80;21214;-78
2022/05/26 02:56:57;;;;;;;19.70;10.43;;;;;;;13.91;68.57;100242.24;1756765;81;21150;-78
2022/05/26 03:00:20;;;;;;;19.02;10.40;;;;;;;14.19;67.87;100237.58;1757001;81;21193;-78
2022/05/26 03:03:31;;;;;;;22.65;9.45;;;;;;;14.57;66.85;100236.66;1755842;80;21190;-78
2022/05/26 03:06:42;;;;;;;19.12;9.23;;;;;;;14.86;65.64;100231.91;1753198;81;21220;-78
2022/05/26 03:09:48;;;;;;;18.85;8.98;;;;;;;15.06;64.98;100220.45;1755360;81;21195;-78
2022/05/26 03:12:54;;;;;;;21.12;9.88;;;;;;;15.20;64.67;100229.61;1755637;80;21196;-78
2022/05/26 03:15:58;;;;;;;22.52;9.43;;;;;;;15.25;64.47;100224.84;1756772;81;21146;-78
2022/05/26 03:19:05;;;;;;;15.65;8.68;;;;;;;15.29;64.80;100237.13;1755409;80;21234;-78
2022/05/26 03:22:10;;;;;;;23.10;9.15;;;;;;;15.43;64.80;100229.23;1756661;80;21874;-78
2022/05/26 03:25:17;;;;;;;15.63;8.03;;;;;;;15.65;64.32;100235.94;1756096;81;21236;-78
2022/05/26 03:28:21;;;;;;;24.00;9.05;;;;;;;15.85;63.96;100234.03;1755836;80;21205;-78
2022/05/26 03:31:26;;;;;;;22.62;9.78;;;;;;;16.05;63.60;100234.04;1756783;81;21206;-78
2022/05/26 03:41:21;;;;;;;17.23;8.88;;;;;;;16.46;62.80;100240.63;1755478;81;21190;-78
2022/05/26 03:44:27;;;;;;;16.75;7.60;;;;;;;16.65;62.73;100238.02;1756770;81;21778;-78
2022/05/26 03:47:32;;;;;;;15.78;8.30;;;;;;;16.85;62.43;100231.94;1756296;80;21196;-78
2022/05/26 03:50:38;;;;;;;17.95;8.38;;;;;;;16.95;62.07;100237.84;1756753;81;22181;-79
2022/05/26 03:53:44;;;;;;;19.35;7.17;;;;;;;16.97;62.26;100241.22;1755579;80;21201;-78
2022/05/26 03:56:50;;;;;;;19.05;7.78;;;;;;;17.04;62.31;100240.66;1755288;80;21196;-78
2022/05/26 03:59:56;;;;;;;15.20;7.45;;;;;;;17.19;62.52;100243.67;1756708;81;21696;-78
2022/05/26 04:03:05;;;;;;;18.12;7.87;;;;;;;17.25;62.30;100238.62;1756281;80;21181;-78
2022/05/26 04:06:10;;;;;;;13.50;6.67;;;;;;;17.29;62.60;100230.20;1756620;81;21165;-78
2022/05/26 04:09:16;;;;;;;13.88;7.40;;;;;;;17.33;62.74;100229.55;1755538;81;21711;-78
2022/05/26 04:12:21;;;;;;;12.53;6.58;;;;;;;17.34;63.22;100236.76;1756739;80;21197;-78
2022/05/26 04:15:27;;;;;;;19.80;6.28;;;;;;;17.37;63.04;100229.95;1756882;81;21189;-78
2022/05/26 04:18:32;;;;;;;19.00;6.55;;;;;;;17.43;63.29;100226.83;1755862;80;21252;-79
2022/05/26 04:22:14;;;;;;;15.15;6.58;;;;;;;17.49;63.16;100230.91;1755324;81;21233;-78
2022/05/26 04:24:47;;;;;;;14.28;7.03;;;;;;;17.61;62.72;100215.30;1756888;81;21150;-78
2022/05/26 04:27:55;;;;;;;10.80;6.10;;;;;;;17.83;61.82;100221.34;1756258;80;21722;-78
2022/05/26 04:31:01;;;;;;;15.43;6.70;;;;;;;17.93;61.59;100215.30;1756770;81;21746;-76
2022/05/26 04:34:08;;;;;;;18.25;7.45;;;;;;;17.98;61.64;100218.22;1754936;80;21182;-76
2022/05/26 04:37:13;;;;;;;18.95;7.50;;;;;;;18.04;61.87;100216.46;1756661;80;21255;-76
2022/05/26 04:40:20;;;;;;;17.07;7.33;;;;;;;18.15;61.38;100210.16;1756922;81;21221;-76
2022/05/26 04:43:25;;;;;;;19.80;7.20;;;;;;;18.32;61.46;100204.89;1756795;80;21755;-75
2022/05/26 04:46:31;;;;;;;12.90;6.17;;;;;;;18.50;61.15;100202.13;1756838;81;21202;-76
2022/05/26 04:49:37;;;;;;;17.55;6.45;;;;;;;18.64;59.85;100206.44;1756864;81;21154;-75
2022/05/26 04:52:43;;;;;;;19.00;6.40;;;;;;;18.78;59.25;100204.92;1756997;80;21208;-76
2022/05/26 04:55:48;;;;;;;15.32;5.58;;;;;;;18.94;58.80;100197.88;1756863;81;21165;-75
2022/05/26 04:58:54;;;;;;;11.25;4.37;;;;;;;19.08;58.27;100203.01;1756765;80;21754;-75
2022/05/26 05:02:00;;;;;;;11.25;4.92;;;;;;;19.21;57.72;100196.44;1756948;80;21192;-76
2022/05/26 05:04:59;;;;;;;10.72;3.92;;;;;;;19.40;56.40;100199.99;1756898;81;21696;-75
2022/05/26 05:08:05;;;;;;;12.60;4.05;;;;;;;19.56;55.64;100197.06;1756819;80;21177;-75
2022/05/26 05:11:12;;;;;;;9.08;3.98;;;;;;;19.65;54.11;100199.83;1755275;81;21200;-76
2022/05/26 05:14:17;;;;;;;9.28;3.67;;;;;;;19.75;54.46;100195.92;1756906;81;21747;-76
2022/05/26 05:17:23;;;;;;;9.05;4.10;;;;;;;19.86;54.15;100192.33;1756822;80;21233;-81
2022/05/26 05:20:28;;;;;;;10.98;3.72;;;;;;;19.95;52.75;100192.83;1755553;81;21786;-81
2022/05/26 05:23:34;;;;;;;8.78;4.03;;;;;;;19.98;52.15;100194.25;1755867;80;21216;-75
2022/05/26 05:26:43;;;;;;;9.50;3.83;;;;;;;19.99;50.78;100195.39;1756901;81;21248;-81
2022/05/26 05:29:48;;;;;;;9.15;4.20;;;;;;;20.07;51.04;100193.66;1756150;81;21679;-81
2022/05/26 05:33:01;;;;;;;9.35;3.98;;;;;;;20.30;50.69;100191.41;1756458;80;21181;-81
2022/05/26 05:36:19;;;;;;;13.15;4.20;;;;;;;20.51;50.36;100194.66;1755012;81;21197;-81
2022/05/26 05:39:27;;;;;;;18.93;5.37;;;;;;;20.61;48.61;100186.03;1756952;81;22147;-81
2022/05/26 05:42:31;;;;;;;10.82;4.97;;;;;;;20.76;48.49;100186.05;1756119;80;21200;-81
2022/05/26 05:45:39;;;;;;;11.48;4.92;;;;;;;20.84;49.06;100187.90;1756723;81;21158;-81
2022/05/26 05:48:45;;;;;;;11.73;5.42;;;;;;;20.89;48.51;100179.66;1755778;80;21197;-81
2022/05/26 05:51:52;;;;;;;18.42;5.15;;;;;;;20.89;48.50;100173.26;1756796;80;21574;-81
2022/05/26 05:54:58;;;;;;;10.78;4.15;;;;;;;20.98;47.17;100177.85;1755434;81;21165;-81
2022/05/26 05:58:08;;;;;;;15.20;4.70;;;;;;;21.03;45.59;100180.22;1755380;80;21755;-81
2022/05/26 06:01:15;;;;;;;11.53;4.42;;;;;;;21.09;45.25;100172.25;1755444;81;21779;-81
2022/05/26 06:04:20;;;;;;;9.45;4.37;;;;;;;21.15;46.20;100172.64;1755467;81;21650;-81
2022/05/26 06:07:27;;;;;;;15.18;4.72;;;;;;;21.27;47.63;100168.42;1756736;80;21195;-82
2022/05/26 06:10:32;;;;;;;6.97;3.60;;;;;;;21.42;46.94;100163.71;1756572;81;21170;-82
2022/05/26 06:13:38;;;;;;;9.00;3.25;;;;;;;21.58;45.17;100173.16;1756743;80;21484;-82
2022/05/26 06:16:45;;;;;;;9.40;3.35;;;;;;;21.69;44.52;100173.09;1755287;81;21717;-81
2022/05/26 06:19:51;;;;;;;11.10;3.33;;;;;;;21.83;43.47;100168.55;1756508;81;21173;-82
2022/05/26 06:22:57;;;;;;;5.67;2.98;;;;;;;21.99;42.49;100158.52;1756193;80;21228;-81
2022/05/26 06:26:03;;;;;;;5.15;2.30;;;;;;;22.00;41.72;100149.90;1756775;81;21800;-81
2022/05/26 06:39:21;;;;;;;9.65;3.00;;;;;;;22.38;40.25;100141.28;1758694;80;21169;-82
2022/05/26 06:42:27;;;;;;;6.62;3.00;;;;;;;22.50;39.58;100142.56;1760848;80;21252;-82
2022/05/26 06:45:35;;;;;;;3.72;2.00;;;;;;;22.57;39.43;100143.19;1747047;81;21678;-83
2022/05/26 06:48:40;;;;;;;5.58;2.00;;;;;;;22.60;39.91;100138.50;1784617;80;21782;-83
2022/05/26 06:51:46;;;;;;;13.70;2.27;;;;;;;22.64;39.20;100144.70;1784390;80;21166;-82
2022/05/26 06:54:53;;;;;;;4.60;1.82;;;;;;;22.62;37.92;100125.98;1768277;80;21137;-81
2022/05/26 06:57:59;;;;;;;7.33;1.90;;;;;;;22.59;36.54;100132.64;1767180;80;21166;-83
2022/05/26 07:01:04;;;;;;;3.10;1.80;;;;;;;22.57;36.99;100127.86;1760614;80;21122;-83
2022/05/26 07:04:09;;;;;;;4.25;1.57;;;;;;;22.60;37.43;100126.80;1759102;80;21173;-83
2022/05/26 07:07:15;;;;;;;3.22;1.80;;;;;;;22.54;35.87;100119.48;1754767;80;21185;-83
2022/05/26 07:10:21;;;;;;;4.33;1.70;;;;;;;22.40;35.85;100121.82;1764624;80;21180;-83
2022/05/26 07:13:29;;;;;;;4.35;1.65;;;;;;;22.18;36.29;100121.80;1722846;82;21146;-83
2022/05/26 07:16:35;;;;;;;3.67;1.50;;;;;;;22.07;37.76;100124.13;1757434;80;21126;-83
2022/05/26 07:19:42;;;;;;;3.67;1.50;;;;;;;22.10;39.88;100125.53;1759246;80;21154;-83
2022/05/26 07:22:49;;;;;;;4.70;1.50;;;;;;;22.15;40.38;100116.73;1757359;80;21149;-83
2022/05/26 07:25:54;;;;;;;4.20;1.82;;;;;;;22.26;39.92;100116.89;1762253;80;21217;-83
2022/05/26 07:28:55;;;;;;;6.20;1.70;;;;;;;22.35;39.62;100116.19;1731088;82;21145;-83
2022/05/26 07:32:03;;;;;;;4.30;1.55;;;;;;;22.47;39.86;100117.98;1762559;80;21153;-83
2022/05/26 07:35:08;;;;;;;4.40;1.42;;;;;;;22.71;39.31;100117.45;1744234;81;22163;-83
2022/05/26 07:41:39;;;;;;;5.37;1.22;;;;;;;22.94;37.16;100112.72;1788523;80;21475;-83
2022/05/26 07:44:48;;;;;;;2.60;1.67;;;;;;;22.88;35.76;100115.14;1759458;80;21770;-83
2022/05/26 07:47:53;;;;;;;3.72;1.67;;;;;;;22.67;35.56;100119.06;1765277;80;21126;-83
2022/05/26 07:50:59;;;;;;;2.60;1.30;;;;;;;22.52;36.12;100118.89;1708424;83;21177;-83
2022/05/26 07:54:06;;;;;;;4.10;1.30;;;;;;;22.58;36.12;100116.45;1756595;80;21195;-83
2022/05/26 07:57:13;;;;;;;2.75;1.30;;;;;;;22.70;37.41;100103.22;1763996;80;21256;-83
2022/05/26 08:00:19;;;;;;;7.90;2.10;;;;;;;22.89;35.65;100116.84;1762608;80;21150;-84
2022/05/26 08:03:24;;;;;;;7.45;1.45;;;;;;;23.01;37.21;100111.97;1716938;83;21161;-84
2022/05/26 08:06:23;;;;;;;2.83;1.40;;;;;;;23.13;37.22;100114.02;1762641;80;21134;-83
2022/05/26 08:09:29;;;;;;;8.53;1.20;;;;;;;23.10;36.62;100115.97;1778474;80;21865;-83
2022/05/26 08:12:36;;;;;;;6.58;1.42;;;;;;;23.05;37.01;100113.66;1781214;80;21201;-83
2022/05/26 08:15:43;;;;;;;2.17;1.45;;;;;;;23.00;37.04;100120.58;1774945;80;22334;-83
2022/05/26 08:18:48;;;;;;;3.83;1.52;;;;;;;22.94;36.87;100121.08;1773947;80;21153;-83
2022/05/26 08:21:54;;;;;;;28.20;2.70;;;;;;;22.89;36.69;100128.00;1776945;79;21124;-83
2022/05/26 08:25:02;;;;;;;5.83;1.47;;;;;;;22.86;36.71;100121.52;1774897;79;21149;-83
2022/05/26 08:28:08;;;;;;;3.70;2.20;;;;;;;22.73;36.14;100130.31;1790639;79;21165;-78
2022/05/26 08:31:17;;;;;;;5.67;1.75;;;;;;;22.50;36.29;100132.25;1800352;79;21523;-83
2022/05/26 08:34:20;;;;;;;5.20;1.62;;;;;;;22.42;36.01;100145.23;1721644;83;21205;-83
2022/05/26 08:37:27;;;;;;;4.92;1.57;;;;;;;22.35;36.46;100150.17;1773957;80;21210;-83
2022/05/26 08:40:56;;;;;;;4.00;1.60;;;;;;;22.26;36.51;100160.07;1780674;80;21734;-83
2022/05/26 08:44:08;;;;;;;8.20;1.32;;;;;;;22.10;36.90;100162.58;1739647;82;21189;-83
2022/05/26 08:47:20;;;;;;;3.80;1.52;;;;;;;21.96;37.72;100165.42;1770566;80;21181;-83
2022/05/26 08:50:24;;;;;;;2.50;1.37;;;;;;;21.90;37.74;100167.84;1711203;84;21553;-83
2022/05/26 08:53:37;;;;;;;5.05;1.45;;;;;;;21.77;37.32;100166.80;1710588;83;21185;-83
2022/05/26 08:56:37;;;;;;;11.65;1.70;;;;;;;21.57;37.55;100159.80;1711329;84;21711;-83
2022/05/26 08:59:48;;;;;;;4.22;1.45;;;;;;;21.29;38.18;100152.31;1711335;84;21173;-83
2022/05/26 09:03:03;;;;;;;4.37;1.72;;;;;;;21.16;39.16;100164.59;1710289;84;21249;-83
2022/05/26 09:06:12;;;;;;;3.37;1.57;;;;;;;21.08;39.88;100151.11;1711169;84;21169;-83
2022/05/26 09:12:59;;;;;;;6.97;1.87;;;;;;;21.13;39.31;100148.97;1710686;84;21339;-83
2022/05/26 09:16:08;;;;;;;3.42;1.60;;;;;;;21.21;39.50;100144.92;1711174;84;21177;-83
2022/05/26 09:19:25;;;;;;;3.42;1.45;;;;;;;21.27;39.01;100146.72;1698512;84;21173;-83
2022/05/26 09:22:52;;;;;;;4.45;1.50;;;;;;;21.32;38.86;100141.28;1711083;84;21904;-83
2022/05/26 09:26:05;;;;;;;3.75;1.40;;;;;;;21.32;38.46;100133.78;1711582;84;21185;-83
2022/05/26 09:29:16;;;;;;;2.98;1.70;;;;;;;21.34;39.06;100129.34;1709835;84;21280;-83
2022/05/26 09:32:26;;;;;;;15.35;2.02;;;;;;;21.32;38.67;100119.03;1709819;84;21192;-84
2022/05/26 09:35:38;;;;;;;6.47;2.22;;;;;;;21.21;38.60;100104.59;1709896;84;21221;-83
2022/05/26 09:38:41;;;;;;;5.62;1.50;;;;;;;21.12;37.41;100114.73;1712812;80;21229;-83
2022/05/26 09:41:51;;;;;;;3.62;1.70;;;;;;;21.08;38.06;100120.52;1707810;84;21714;-83
2022/05/26 09:45:06;;;;;;;11.80;1.87;;;;;;;21.09;38.84;100111.08;1704769;84;21173;-83
2022/05/26 09:48:14;;;;;;;3.45;1.45;;;;;;;21.10;38.29;100105.81;1701723;84;21155;-83
2022/05/26 09:51:35;;;;;;;6.70;1.60;;;;;;;21.07;38.61;100106.30;1674351;83;21680;-83
2022/05/26 09:54:40;;;;;;;4.58;1.67;;;;;;;20.98;39.12;100109.19;1712386;83;21219;-83
2022/05/26 09:57:46;;;;;;;4.70;1.82;;;;;;;20.91;38.95;100104.34;1705066;83;21207;-83
2022/05/26 10:00:54;;;;;;;4.58;1.70;;;;;;;20.87;37.61;100109.55;1709621;83;21165;-83
2022/05/26 10:04:38;;;;;;;4.10;1.62;;;;;;;20.75;37.60;100106.52;1701255;84;21181;-83
2022/05/26 10:07:55;;;;;;;3.37;1.50;;;;;;;20.70;38.07;100104.48;1680438;84;21146;-83
2022/05/26 10:11:06;;;;;;;4.00;1.35;;;;;;;20.65;37.68;100102.98;1703928;83;21194;-83
2022/05/26 10:14:21;;;;;;;2.15;1.30;;;;;;;20.62;38.29;100098.79;1727477;83;21695;-83
2022/05/26 10:17:57;;;;;;;11.03;1.20;;;;;;;20.72;38.35;100090.36;1731085;81;21224;-83
2022/05/26 10:21:48;;;;;;;8.23;1.20;;;;;;;20.81;37.75;100087.48;1721579;83;21185;-82
2022/05/26 10:25:07;;;;;;;2.30;1.10;;;;;;;20.85;37.67;100088.67;1726342;83;21188;-83
2022/05/26 10:28:32;;;;;;;3.25;1.00;;;;;;;20.78;38.37;100083.80;1728953;83;21217;-83
2022/05/26 10:32:08;;;;;;;9.33;1.30;;;;;;;20.71;37.92;100074.78;1737990;82;21185;-83
2022/05/26 10:35:33;;;;;;;4.15;0.98;;;;;;;20.59;38.53;100081.21;1737281;82;21173;-84
2022/05/26 10:38:59;;;;;;;5.25;1.10;;;;;;;20.40;39.83;100076.36;1736712;82;21296;-83
2022/05/26 10:42:15;;;;;;;1.85;1.10;;;;;;;20.13;42.82;100084.94;1799882;78;21833;-83
2022/05/26 10:45:44;;;;;;;2.98;1.10;;;;;;;19.79;44.63;100076.97;1782518;80;21244;-82
2022/05/26 10:49:11;;;;;;;3.45;1.22;;;;;;;19.51;46.01;100072.11;1722909;83;21852;-83
2022/05/26 10:52:38;;;;;;;11.18;1.98;;;;;;;19.28;47.47;100061.84;1722658;83;21816;-83
2022/05/26 10:55:57;;;;;;;1.80;1.10;;;;;;;19.06;47.98;100046.34;1723629;83;21801;-83
2022/05/26 10:59:28;;;;;;;4.42;1.25;;;;;;;18.84;48.87;100035.80;1719104;83;21758;-83
2022/05/26 11:02:39;;;;;;;5.65;1.25;;;;;;;18.63;50.77;100026.08;1738074;82;21614;-85
2022/05/26 11:05:50;;;;;;;;;;;;;;;18.44;52.64;100024.96;1757837;80;21703;-85
2022/05/26 11:09:16;;;;;;;4.87;1.20;;;;;;;18.24;54.59;100028.85;1790712;79;20272;-85
2022/05/26 11:12:34;;;;;;;5.83;1.30;;;;;;;18.05;56.36;100028.03;1797736;79;21176;-85
2022/05/26 11:19:38;;;;;;;2.25;1.15;;;;;;;17.65;56.64;100053.07;1778138;80;21228;-85
2022/05/26 11:22:48;;;;;;;2.58;1.37;;;;;;;17.32;59.39;100070.83;1785018;80;21201;-85
2022/05/26 11:25:57;;;;;;;5.37;1.25;;;;;;;16.95;61.06;100074.84;1776795;80;21821;-77
2022/05/26 11:29:13;;;;;;;4.03;1.00;;;;;;;16.72;62.91;100089.22;1775780;80;21694;-84
2022/05/26 11:39:10;;;;;;;1.35;0.80;;;;;;;16.44;64.16;100101.13;1740640;82;21168;-77
2022/05/26 11:42:21;;;;;;;4.97;1.10;;;;;;;16.36;64.64;100104.98;1710823;82;21266;-77
2022/05/26 11:45:33;;;;;;;5.25;1.50;;;;;;;16.31;66.10;100106.17;1735606;82;21248;-77
2022/05/26 11:48:45;;;;;;;3.80;1.35;;;;;;;16.24;66.77;100099.84;1727600;81;21213;-77
2022/05/26 11:51:50;;;;;;;2.42;1.60;;;;;;;16.14;67.12;100106.34;1740069;81;21165;-78
2022/05/26 11:55:07;;;;;;;4.60;1.75;;;;;;;16.03;67.52;100107.33;1739759;82;21699;-77
2022/05/26 11:58:46;;;;;;;8.78;1.87;;;;;;;15.97;68.82;100117.86;1739509;81;21783;-77
2022/05/26 12:01:38;;;;;;;4.47;1.90;;;;;;;15.89;69.43;100105.67;1739563;82;21722;-78
2022/05/26 12:04:32;;;;;;;;;;;;;;;15.86;70.94;100122.67;1742698;82;21825;-78
2022/05/26 12:07:30;;;;;;;4.92;2.42;;;;;;;15.87;71.83;100122.14;1735296;81;20214;-78
2022/05/26 12:10:37;;;;;;;8.48;2.22;;;;;;;15.91;72.64;100115.13;1735308;82;21193;-77
2022/05/26 12:13:45;;;;;;;7.80;2.77;;;;;;;15.91;72.86;100118.73;1733560;81;21197;-77
2022/05/26 12:16:52;;;;;;;9.83;2.90;;;;;;;15.90;73.88;100122.53;1711734;82;21217;-78
2022/05/26 12:19:58;;;;;;;7.95;3.10;;;;;;;15.87;74.58;100123.52;1713967;82;21602;-77
2022/05/26 12:23:14;;;;;;;5.15;3.02;;;;;;;15.84;75.44;100126.16;1713879;83;21210;-78
2022/05/26 12:26:34;;;;;;;12.00;3.25;;;;;;;15.84;76.28;100127.53;1713991;83;21195;-78
2022/05/26 12:30:05;;;;;;;6.40;2.60;;;;;;;15.84;77.12;100131.14;1714303;82;22085;-83
2022/05/26 12:33:36;;;;;;;5.33;2.33;;;;;;;15.84;77.39;100127.53;1719749;82;21676;-82
2022/05/26 12:37:02;;;;;;;5.87;1.70;;;;;;;15.83;78.03;100136.34;1737978;82;21170;-83
2022/05/26 12:40:30;;;;;;;4.90;1.70;;;;;;;15.80;76.41;100132.63;1730015;83;21870;-83
2022/05/26 12:43:51;;;;;;;2.92;1.10;;;;;;;15.69;74.87;100124.17;1715893;82;21173;-82
2022/05/26 12:47:29;;;;;;;3.33;1.20;;;;;;;15.59;73.87;100127.34;1720812;82;21177;-83
2022/05/26 12:50:35;;;;;;;4.60;1.00;;;;;;;15.48;73.78;100116.44;1691304;85;21148;-83
2022/05/26 12:53:39;;;;;;;2.40;1.40;;;;;;;15.39;73.20;100106.69;1740009;81;21208;-83
2022/05/26 12:56:55;;;;;;;;;;;;;;;15.34;72.87;100103.19;1742309;82;21734;-83
2022/05/26 13:00:34;;;;;;;4.72;1.30;;;;;;;15.27;73.72;100110.59;1741975;82;20612;-83
2022/05/26 13:03:48;;;;;;;5.08;1.32;;;;;;;15.22;74.38;100107.63;1732174;82;21221;-83
2022/05/26 13:06:57;;;;;;;3.05;1.40;;;;;;;15.17;74.88;100112.08;1719915;82;21617;-83
2022/05/26 13:10:03;;;;;;;4.80;1.52;;;;;;;15.16;75.32;100112.61;1746807;82;21727;-83
2022/05/26 13:13:14;;;;;;;4.62;1.30;;;;;;;15.17;75.71;100106.57;1741890;82;21527;-83
2022/05/26 13:16:46;;;;;;;7.25;1.92;;;;;;;15.18;75.54;100111.02;1745933;82;21197;-83
2022/05/26 13:20:04;;;;;;;2.22;1.50;;;;;;;15.15;75.27;100101.28;1745009;82;21133;-83
2022/05/26 13:23:10;;;;;;;6.53;1.60;;;;;;;15.09;75.23;100091.93;1734751;82;21762;-83
2022/05/26 13:26:16;;;;;;;11.18;1.82;;;;;;;15.03;75.87;100109.84;1746462;82;21249;-82
2022/05/26 13:29:25;;;;;;;3.75;1.80;;;;;;;14.99;76.75;100098.39;1723244;82;21145;-83
2022/05/26 13:36:05;;;;;;;4.80;1.60;;;;;;;14.92;78.99;100085.69;1733595;82;21181;-83
2022/05/26 13:39:23;;;;;;;3.55;1.25;;;;;;;14.85;79.60;100082.06;1722278;83;21248;-82
2022/05/26 13:42:29;;;;;;;2.42;1.35;;;;;;;14.78;80.37;100095.30;1728308;81;21726;-83
2022/05/26 13:45:40;;;;;;;2.83;1.30;;;;;;;14.77;81.01;100087.23;1754789;81;21189;-83
2022/05/26 13:48:47;;;;;;;;;;;;;;;14.77;81.63;100079.84;1751199;81;21728;-83
2022/05/26 13:51:55;;;;;;;5.00;1.92;;;;;;;14.80;82.23;100082.69;1751668;81;20180;-83
2022/05/26 13:55:10;;;;;;;3.98;1.50;;;;;;;14.85;82.88;100071.05;1755698;81;21180;-83
2022/05/26 13:58:17;;;;;;;3.47;1.50;;;;;;;14.88;82.74;100062.38;1761438;80;21133;-84
2022/05/26 14:01:24;;;;;;;2.72;1.60;;;;;;;14.93;83.02;100059.31;1769934;80;21168;-83
2022/05/26 14:04:39;;;;;;;5.65;1.80;;;;;;;14.99;83.22;100062.59;1729982;80;21180;-83
2022/05/26 14:07:50;;;;;;;12.30;2.55;;;;;;;15.06;82.91;100060.70;1761209;80;21145;-84
2022/05/26 14:10:59;;;;;;;8.00;2.33;;;;;;;15.11;82.83;100050.95;1710865;82;21778;-83
2022/05/26 14:14:27;;;;;;;8.50;1.87;;;;;;;15.17;82.19;100051.47;1738965;82;21161;-83
2022/05/26 14:17:35;;;;;;;;;;;;;;;15.20;81.49;100049.15;1754562;81;21197;-83
2022/05/26 14:20:41;;;;;;;3.90;2.02;;;;;;;15.25;80.15;100046.59;1746822;80;20220;-83
2022/05/26 14:23:55;;;;;;;10.08;2.40;;;;;;;15.24;80.21;100039.90;1761034;80;21734;-83
2022/05/26 14:27:18;;;;;;;7.22;2.83;;;;;;;15.20;79.83;100026.27;1714794;82;21201;-77
2022/05/26 14:30:49;;;;;;;12.28;3.65;;;;;;;15.16;79.30;100033.25;1741030;82;21196;-78
2022/05/26 14:34:09;;;;;;;8.33;3.60;;;;;;;15.13;79.98;100030.91;1722309;82;21202;-83
2022/05/26 14:37:14;;;;;;;6.70;3.00;;;;;;;15.13;80.60;100029.54;1780162;80;21168;-83
2022/05/26 14:40:20;;;;;;;5.92;2.30;;;;;;;15.12;81.27;100010.79;1748372;82;21806;-83
2022/05/26 14:43:29;;;;;;;3.17;2.17;;;;;;;15.12;82.13;100008.56;1781426;80;21198;-83
2022/05/26 14:46:35;;;;;;;5.78;2.47;;;;;;;15.14;83.07;100006.44;1777871;80;21189;-83
2022/05/26 14:49:42;;;;;;;2.60;2.00;;;;;;;15.15;83.08;100006.74;1768593;80;21156;-83
2022/05/26 14:52:50;;;;;;;4.87;1.85;;;;;;;15.16;82.73;99996.06;1734923;82;21570;-83
2022/05/26 14:55:49;;;;;;;3.08;2.05;;;;;;;15.15;83.09;99997.10;1766837;81;21176;-83
2022/05/26 14:58:54;;;;;;;6.67;2.02;;;;;;;15.14;83.02;99996.79;1735073;82;21213;-83
2022/05/26 15:01:59;;;;;;;2.98;1.50;;;;;;;15.13;82.42;99986.84;1767283;81;21180;-83
2022/05/26 15:05:04;;;;;;;9.05;2.87;;;;;;;15.13;81.25;99995.11;1703496;82;21153;-83
2022/05/26 15:08:20;;;;;;;4.40;1.35;;;;;;;15.11;80.92;99991.73;1732151;82;21639;-83
2022/05/26 15:11:26;;;;;;;4.20;1.17;;;;;;;15.06;78.32;100002.85;1733486;82;21164;-83
2022/05/26 15:14:34;;;;;;;1.90;1.40;;;;;;;14.99;75.06;99997.86;1733799;82;21432;-83
2022/05/26 15:17:41;;;;;;;3.65;1.35;;;;;;;14.94;74.59;99991.30;1733276;82;21845;-83
2022/05/26 15:20:46;;;;;;;1.92;1.20;;;;;;;14.88;75.02;99986.66;1754622;81;21197;-83
2022/05/26 15:23:53;;;;;;;2.55;1.57;;;;;;;14.85;75.53;99996.17;1754406;80;21711;-82
2022/05/26 15:26:59;;;;;;;7.95;1.57;;;;;;;14.81;76.56;99993.52;1754577;80;21237;-83